Time;durP1;ratioP1;P1;durP2;ratioP2;P2;SDS_P1;SDS_P2;PMS_P1;PMS_P2;Temp;Humidity;BMP_temperature;BMP_pressure;BME280_temperature;BME280_humidity;BME280_pressure;Samples;Min_cycle;Max_cycle;Signal;HPM_P1;HPM_P2
2022/07/07 00:00:29;;;;;;;157.35;142.95;;;17.40;99.90;;;;;;5013111;28;20166;-74
2022/07/07 00:02:56;;;;;;;152.25;137.95;;;17.40;99.90;;;;;;5012485;28;20051;-73
2022/07/07 00:05:24;;;;;;;150.50;136.40;;;17.40;99.90;;;;;;4995343;28;20145;-74
2022/07/07 00:07:53;;;;;;;153.15;138.95;;;17.40;99.90;;;;;;5014453;28;20104;-74
2022/07/07 00:10:21;;;;;;;152.57;138.32;;;17.40;99.90;;;;;;5030237;28;20480;-74
2022/07/07 00:12:48;;;;;;;150.35;136.48;;;17.40;99.90;;;;;;5029990;28;20046;-74
2022/07/07 00:15:16;;;;;;;150.40;136.30;;;17.30;99.90;;;;;;5012210;28;20062;-74
2022/07/07 00:17:43;;;;;;;148.90;134.70;;;17.40;99.90;;;;;;4996919;28;20050;-74
2022/07/07 00:20:11;;;;;;;152.05;137.95;;;17.30;99.90;;;;;;4997498;28;20047;-74
2022/07/07 00:22:37;;;;;;;152.13;137.82;;;17.40;99.90;;;;;;5014640;28;20046;-74
2022/07/07 00:25:06;;;;;;;149.93;136.00;;;17.30;99.90;;;;;;5014399;28;20051;-74
2022/07/07 00:27:33;;;;;;;151.48;137.40;;;17.40;99.90;;;;;;5014522;28;20054;-74
2022/07/07 00:30:00;;;;;;;150.85;136.77;;;17.40;99.90;;;;;;4997078;28;20489;-74
2022/07/07 00:32:27;;;;;;;149.82;135.77;;;17.30;99.90;;;;;;4996834;28;20516;-74
2022/07/07 00:34:54;;;;;;;147.52;133.68;;;17.30;99.90;;;;;;5029927;28;20539;-74
2022/07/07 00:37:21;;;;;;;144.98;131.18;;;17.30;99.90;;;;;;5014016;28;20133;-74
2022/07/07 00:39:48;;;;;;;147.35;133.50;;;17.30;99.90;;;;;;4997304;28;20050;-74
2022/07/07 00:42:17;;;;;;;148.60;134.75;;;17.30;99.90;;;;;;4996919;28;20065;-74
2022/07/07 00:44:44;;;;;;;146.98;133.18;;;17.20;99.90;;;;;;4996369;28;20061;-74
2022/07/07 00:47:12;;;;;;;148.43;134.32;;;17.30;99.90;;;;;;4994468;28;20065;-74
2022/07/07 00:49:40;;;;;;;143.95;130.13;;;17.30;99.90;;;;;;4997098;28;20137;-74
2022/07/07 00:52:08;;;;;;;147.88;133.93;;;17.20;99.90;;;;;;5013550;28;20540;-74
2022/07/07 00:54:35;;;;;;;146.73;132.93;;;17.30;99.90;;;;;;4996431;28;20057;-74
2022/07/07 00:57:04;;;;;;;151.35;137.07;;;17.30;99.90;;;;;;5013805;28;20051;-74
2022/07/07 00:59:34;;;;;;;147.07;132.88;;;17.30;99.90;;;;;;5014112;28;20061;-74
2022/07/07 01:02:02;;;;;;;148.68;135.07;;;17.40;99.90;;;;;;5013866;28;20536;-74
2022/07/07 01:04:29;;;;;;;144.77;131.30;;;17.40;99.90;;;;;;5013781;28;20058;-74
2022/07/07 01:06:56;;;;;;;148.20;134.00;;;17.40;99.90;;;;;;5013767;28;20081;-74
2022/07/07 01:09:25;;;;;;;144.25;130.75;;;17.40;99.90;;;;;;4996179;28;20081;-74
2022/07/07 01:11:54;;;;;;;147.32;133.50;;;17.40;99.90;;;;;;4996056;28;20046;-74
2022/07/07 01:14:22;;;;;;;148.20;133.85;;;17.40;99.90;;;;;;4996416;28;20131;-74
2022/07/07 01:16:52;;;;;;;148.85;135.02;;;17.40;99.90;;;;;;4996176;28;20146;-74
2022/07/07 01:19:20;;;;;;;156.75;142.40;;;17.40;99.90;;;;;;4994568;28;20054;-74
2022/07/07 01:21:54;;;;;;;150.25;136.52;;;17.30;99.90;;;;;;5015834;28;20409;-74
2022/07/07 01:24:24;;;;;;;148.10;134.00;;;17.40;99.90;;;;;;5015947;28;20858;-74
2022/07/07 01:26:51;;;;;;;148.38;134.38;;;17.40;99.90;;;;;;5048589;28;20512;-74
2022/07/07 01:29:18;;;;;;;147.73;133.32;;;17.30;99.90;;;;;;5048633;28;20050;-75
2022/07/07 01:31:45;;;;;;;147.05;133.15;;;17.30;99.90;;;;;;5033015;28;20432;-75
2022/07/07 01:34:12;;;;;;;147.60;133.80;;;17.30;99.90;;;;;;5033334;28;20537;-75
2022/07/07 01:36:39;;;;;;;144.60;130.90;;;17.30;99.90;;;;;;4999130;28;20448;-75
2022/07/07 01:39:06;;;;;;;145.90;132.18;;;17.30;99.90;;;;;;5032924;28;20194;-75
2022/07/07 01:41:34;;;;;;;142.45;128.55;;;17.30;99.90;;;;;;5033466;28;20386;-75
2022/07/07 01:44:01;;;;;;;146.38;132.23;;;17.30;99.90;;;;;;5048444;28;20054;-75
2022/07/07 01:46:27;;;;;;;140.63;127.22;;;17.20;99.90;;;;;;5033519;28;20056;-75
2022/07/07 01:48:55;;;;;;;142.85;129.45;;;17.20;99.90;;;;;;5015228;28;20161;-75
2022/07/07 01:51:22;;;;;;;142.30;128.80;;;17.20;99.90;;;;;;5033031;28;20176;-74
2022/07/07 01:53:48;;;;;;;140.88;127.57;;;17.20;99.90;;;;;;5012715;28;20050;-75
2022/07/07 01:56:15;;;;;;;142.73;129.07;;;17.10;99.90;;;;;;5033533;28;20096;-75
2022/07/07 01:58:44;;;;;;;146.10;132.60;;;17.10;99.90;;;;;;5014813;28;20053;-75
2022/07/07 02:01:13;;;;;;;140.00;126.80;;;17.10;99.90;;;;;;5015516;28;20129;-75
2022/07/07 02:03:40;;;;;;;144.05;130.55;;;17.10;99.90;;;;;;5015251;28;20056;-75
2022/07/07 02:06:07;;;;;;;141.90;128.73;;;17.10;99.90;;;;;;5015440;28;20107;-75
2022/07/07 02:08:34;;;;;;;143.65;130.13;;;17.10;99.90;;;;;;5032565;28;20050;-75
2022/07/07 02:11:13;;;;;;;143.68;130.20;;;17.10;99.90;;;;;;5047994;28;20072;-75
2022/07/07 02:13:41;;;;;;;141.35;128.20;;;17.00;99.90;;;;;;5048051;28;20464;-75
2022/07/07 02:16:10;;;;;;;141.45;128.35;;;17.00;99.90;;;;;;5047942;28;20046;-75
2022/07/07 02:18:38;;;;;;;137.63;124.75;;;17.00;99.90;;;;;;5047811;28;20132;-75
2022/07/07 02:21:07;;;;;;;139.85;126.93;;;17.00;99.90;;;;;;5032817;28;20132;-75
2022/07/07 02:23:35;;;;;;;139.63;126.72;;;17.00;99.90;;;;;;5032401;28;20053;-75
2022/07/07 02:26:01;;;;;;;142.05;129.05;;;16.90;99.90;;;;;;5028068;28;20062;-74
2022/07/07 02:28:29;;;;;;;138.02;125.43;;;17.00;99.90;;;;;;5011500;28;20050;-74
2022/07/07 02:30:57;;;;;;;137.93;125.15;;;16.90;99.90;;;;;;4995102;28;20043;-74
2022/07/07 02:33:25;;;;;;;138.48;125.95;;;16.90;99.90;;;;;;4995190;28;20053;-75
2022/07/07 02:35:54;;;;;;;142.38;129.57;;;16.90;99.90;;;;;;4995403;28;20058;-75
2022/07/07 02:38:22;;;;;;;141.88;128.80;;;16.90;99.90;;;;;;4995207;28;20149;-74
2022/07/07 02:40:49;;;;;;;140.80;128.00;;;16.90;99.90;;;;;;5027820;28;20047;-74
2022/07/07 02:43:16;;;;;;;139.13;126.43;;;17.00;99.90;;;;;;5012835;28;20080;-74
2022/07/07 02:45:44;;;;;;;139.82;126.95;;;16.90;99.90;;;;;;4994772;28;20536;-74
2022/07/07 02:48:13;;;;;;;141.82;128.65;;;16.90;99.90;;;;;;5012316;28;20506;-74
2022/07/07 02:50:42;;;;;;;142.15;128.95;;;16.90;99.90;;;;;;4995099;28;20039;-75
2022/07/07 02:53:10;;;;;;;141.82;128.75;;;16.90;99.90;;;;;;5012083;28;20068;-74
2022/07/07 02:55:38;;;;;;;141.13;128.02;;;16.90;99.90;;;;;;4995335;28;20528;-74
2022/07/07 02:58:06;;;;;;;141.65;128.20;;;16.90;99.90;;;;;;4994833;28;20547;-74
2022/07/07 03:00:34;;;;;;;140.20;127.10;;;16.90;99.90;;;;;;5024363;28;20042;-75
2022/07/07 03:03:02;;;;;;;141.15;127.85;;;16.90;99.90;;;;;;5014084;28;20551;-74
2022/07/07 03:05:29;;;;;;;139.20;126.18;;;17.00;99.90;;;;;;5047060;28;20092;-75
2022/07/07 03:07:57;;;;;;;140.43;127.18;;;17.00;99.90;;;;;;5031305;28;20053;-75
2022/07/07 03:10:24;;;;;;;142.60;129.32;;;17.00;99.90;;;;;;5013936;28;20428;-75
2022/07/07 03:12:51;;;;;;;141.68;128.02;;;17.00;99.90;;;;;;5031896;28;20060;-74
2022/07/07 03:15:19;;;;;;;140.00;126.60;;;17.00;99.90;;;;;;5013938;28;20077;-74
2022/07/07 03:17:47;;;;;;;139.18;126.15;;;17.00;99.90;;;;;;5013589;28;20779;-74
2022/07/07 03:20:16;;;;;;;140.20;126.70;;;16.90;99.90;;;;;;5031639;28;20129;-74
2022/07/07 03:22:44;;;;;;;140.85;127.35;;;16.90;99.90;;;;;;5034414;28;20504;-75
2022/07/07 03:25:12;;;;;;;140.68;127.07;;;16.90;99.90;;;;;;5050622;28;20057;-74
2022/07/07 03:27:40;;;;;;;140.68;126.82;;;16.90;99.90;;;;;;5050242;28;20049;-74
2022/07/07 03:30:09;;;;;;;137.38;124.25;;;16.90;99.90;;;;;;5035112;28;20593;-75
2022/07/07 03:32:37;;;;;;;137.27;124.15;;;16.90;99.90;;;;;;5028317;28;20081;-75
2022/07/07 03:35:04;;;;;;;137.05;123.75;;;16.90;99.90;;;;;;4997480;28;20428;-74
2022/07/07 03:37:32;;;;;;;137.73;124.45;;;16.90;99.90;;;;;;5030784;28;20053;-74
2022/07/07 03:39:59;;;;;;;138.10;124.55;;;16.90;99.90;;;;;;4997807;28;20054;-74
2022/07/07 03:42:27;;;;;;;137.27;123.78;;;16.90;99.90;;;;;;5030874;28;20484;-74
2022/07/07 03:44:54;;;;;;;137.77;124.10;;;16.90;99.90;;;;;;5029856;28;20054;-74
2022/07/07 03:47:21;;;;;;;136.95;123.45;;;16.90;99.90;;;;;;5015033;28;20058;-75
2022/07/07 03:49:48;;;;;;;138.25;124.72;;;16.90;99.90;;;;;;4997351;28;20049;-74
2022/07/07 03:52:15;;;;;;;136.55;123.40;;;16.90;99.90;;;;;;5014793;28;20066;-74
2022/07/07 03:54:42;;;;;;;139.18;125.85;;;16.90;99.90;;;;;;4997345;28;20054;-74
2022/07/07 03:57:08;;;;;;;142.65;128.68;;;16.90;99.90;;;;;;4997342;28;20077;-74
2022/07/07 03:59:37;;;;;;;137.57;124.05;;;16.90;99.90;;;;;;5014659;28;20360;-74
2022/07/07 04:02:04;;;;;;;136.15;122.40;;;16.90;99.90;;;;;;4997497;28;20047;-74
2022/07/07 04:04:31;;;;;;;135.57;122.22;;;16.90;99.90;;;;;;5014972;28;20093;-74
2022/07/07 04:06:58;;;;;;;139.05;125.38;;;16.80;99.90;;;;;;5009424;28;20057;-74
2022/07/07 04:09:25;;;;;;;135.68;122.07;;;16.80;99.90;;;;;;5050152;28;20069;-74
2022/07/07 04:11:52;;;;;;;139.90;126.25;;;16.80;99.90;;;;;;5000731;28;20053;-74
2022/07/07 04:14:19;;;;;;;140.80;126.72;;;16.80;99.90;;;;;;5049632;28;20056;-74
2022/07/07 04:16:47;;;;;;;141.88;128.05;;;16.80;99.90;;;;;;5049974;28;20469;-74
2022/07/07 04:19:14;;;;;;;140.63;126.70;;;16.80;99.90;;;;;;5034599;28;20060;-74
2022/07/07 04:21:41;;;;;;;141.75;127.90;;;16.80;99.90;;;;;;5016750;28;20042;-75
2022/07/07 04:24:08;;;;;;;141.15;127.53;;;16.80;99.90;;;;;;5017117;28;20064;-75
2022/07/07 04:26:36;;;;;;;140.07;126.57;;;16.80;99.90;;;;;;5000319;28;20497;-75
2022/07/07 04:29:03;;;;;;;138.52;124.40;;;16.80;99.90;;;;;;5016102;28;20487;-75
2022/07/07 04:31:30;;;;;;;139.32;125.95;;;16.80;99.80;;;;;;5033679;28;21057;-75
2022/07/07 04:33:58;;;;;;;136.18;123.25;;;16.80;99.70;;;;;;5034088;28;20444;-74
2022/07/07 04:36:25;;;;;;;139.98;126.68;;;16.80;99.60;;;;;;5016812;28;20045;-74
2022/07/07 04:38:52;;;;;;;138.63;125.32;;;16.80;99.50;;;;;;5031393;28;20513;-74
2022/07/07 04:41:19;;;;;;;135.20;122.07;;;16.80;99.20;;;;;;5049246;28;20514;-74
2022/07/07 04:43:46;;;;;;;138.45;125.07;;;16.80;99.20;;;;;;5049695;28;20551;-74
2022/07/07 04:46:12;;;;;;;138.40;125.00;;;16.70;99.20;;;;;;5016437;28;20050;-74
2022/07/07 04:48:39;;;;;;;136.85;123.45;;;16.70;99.10;;;;;;5049268;28;20050;-74
2022/07/07 04:51:08;;;;;;;135.60;122.25;;;16.70;99.10;;;;;;5033842;28;20465;-74
2022/07/07 04:53:34;;;;;;;134.13;121.13;;;16.70;99.10;;;;;;5032620;28;20445;-74
2022/07/07 04:56:01;;;;;;;138.07;124.80;;;16.60;99.00;;;;;;5049120;28;20052;-75
2022/07/07 04:58:28;;;;;;;134.35;121.35;;;16.60;99.00;;;;;;5033725;28;20155;-74
2022/07/07 05:00:55;;;;;;;137.52;124.28;;;16.60;99.00;;;;;;5033836;28;20050;-75
2022/07/07 05:03:22;;;;;;;134.38;121.50;;;16.60;99.00;;;;;;5034992;28;20081;-75
2022/07/07 05:05:49;;;;;;;132.48;119.60;;;16.50;99.00;;;;;;5034442;28;20050;-75
2022/07/07 05:08:17;;;;;;;135.60;122.70;;;16.50;98.90;;;;;;5049488;28;20042;-75
2022/07/07 05:10:44;;;;;;;135.48;122.57;;;16.50;99.00;;;;;;5049979;28;20081;-75
2022/07/07 05:13:11;;;;;;;136.10;123.20;;;16.40;98.90;;;;;;5039768;28;20157;-75
2022/07/07 05:15:38;;;;;;;134.35;121.45;;;16.40;98.90;;;;;;4996627;28;20042;-75
2022/07/07 05:18:05;;;;;;;133.77;121.20;;;16.40;98.90;;;;;;4996549;28;20050;-75
2022/07/07 05:20:31;;;;;;;135.40;122.70;;;16.40;98.90;;;;;;5014459;28;20054;-75
2022/07/07 05:22:58;;;;;;;138.10;124.90;;;16.40;98.90;;;;;;5013326;28;20054;-75
2022/07/07 05:25:27;;;;;;;135.30;122.70;;;16.40;98.90;;;;;;4997094;28;20050;-74
2022/07/07 05:27:54;;;;;;;133.73;120.93;;;16.30;98.90;;;;;;5013950;28;20061;-74
2022/07/07 05:30:21;;;;;;;134.85;122.10;;;16.30;99.00;;;;;;5014551;28;20464;-75
2022/07/07 05:32:48;;;;;;;133.90;121.00;;;16.30;99.10;;;;;;4996750;28;20054;-74
2022/07/07 05:35:16;;;;;;;136.80;123.75;;;16.30;99.10;;;;;;4996602;28;20816;-74
2022/07/07 05:37:43;;;;;;;132.93;120.32;;;16.40;99.20;;;;;;5024869;28;20053;-75
2022/07/07 05:40:11;;;;;;;133.93;121.07;;;16.30;99.20;;;;;;5012650;28;20050;-75
2022/07/07 05:42:39;;;;;;;131.00;118.55;;;16.40;99.30;;;;;;4998604;28;20100;-75
2022/07/07 05:45:07;;;;;;;132.35;119.38;;;16.40;99.20;;;;;;5015086;28;20588;-75
2022/07/07 05:47:34;;;;;;;129.20;116.65;;;16.40;99.20;;;;;;5025725;28;20053;-75
2022/07/07 05:50:01;;;;;;;129.43;117.13;;;16.30;99.20;;;;;;5015372;28;20052;-75
2022/07/07 05:52:28;;;;;;;133.48;120.63;;;16.30;99.20;;;;;;5031303;28;20050;-75
2022/07/07 05:54:56;;;;;;;131.10;118.25;;;16.30;99.10;;;;;;5015547;28;20046;-74
2022/07/07 05:57:24;;;;;;;130.80;118.05;;;16.30;99.20;;;;;;5033176;28;20054;-75
2022/07/07 05:59:52;;;;;;;132.52;119.85;;;16.30;99.10;;;;;;5033602;28;20077;-75
2022/07/07 06:02:19;;;;;;;129.95;117.15;;;16.30;99.10;;;;;;5032071;28;20061;-75
2022/07/07 06:04:46;;;;;;;130.43;117.53;;;16.30;99.10;;;;;;5015819;28;20079;-75
2022/07/07 06:07:13;;;;;;;132.80;119.60;;;16.30;99.10;;;;;;5004862;28;20073;-74
2022/07/07 06:09:40;;;;;;;132.90;119.90;;;16.30;99.00;;;;;;5015184;28;20046;-75
2022/07/07 06:12:07;;;;;;;131.95;118.82;;;16.30;99.00;;;;;;5033782;28;20152;-75
2022/07/07 06:14:34;;;;;;;133.27;120.55;;;16.30;99.00;;;;;;5029564;28;20050;-75
2022/07/07 06:17:03;;;;;;;134.70;121.32;;;16.30;99.10;;;;;;5011066;28;20051;-75
2022/07/07 06:19:30;;;;;;;134.13;121.03;;;16.30;99.00;;;;;;4995086;28;20141;-75
2022/07/07 06:21:57;;;;;;;132.55;119.70;;;16.40;99.00;;;;;;5012944;28;20142;-75
2022/07/07 06:24:24;;;;;;;132.43;119.57;;;16.40;99.00;;;;;;4995603;28;20054;-75
2022/07/07 06:26:51;;;;;;;134.60;121.25;;;16.40;99.00;;;;;;5011428;28;20050;-75
2022/07/07 06:29:19;;;;;;;133.65;120.65;;;16.40;99.00;;;;;;4995263;28;20133;-75
2022/07/07 06:31:45;;;;;;;135.40;121.93;;;16.40;99.00;;;;;;5011420;28;20050;-74
2022/07/07 06:34:14;;;;;;;132.43;119.53;;;16.40;99.00;;;;;;5026332;28;20153;-74
2022/07/07 06:36:41;;;;;;;133.32;120.28;;;16.50;99.00;;;;;;5031925;28;20057;-74
2022/07/07 06:39:08;;;;;;;131.38;118.90;;;16.50;98.90;;;;;;5032404;28;20058;-73
2022/07/07 06:41:36;;;;;;;129.73;116.85;;;16.50;98.70;;;;;;5031424;28;20137;-74
2022/07/07 06:44:04;;;;;;;129.77;117.07;;;16.50;98.70;;;;;;5032447;28;20058;-74
2022/07/07 06:46:31;;;;;;;130.45;117.68;;;16.50;98.80;;;;;;5014797;28;20085;-75
2022/07/07 06:48:58;;;;;;;131.65;118.75;;;16.60;98.80;;;;;;5006566;28;20081;-75
2022/07/07 06:51:26;;;;;;;130.82;118.25;;;16.60;98.70;;;;;;4994403;28;20887;-75
2022/07/07 06:53:57;;;;;;;134.00;121.13;;;16.60;98.70;;;;;;5006788;28;20057;-75
2022/07/07 06:56:24;;;;;;;134.57;121.97;;;16.60;98.70;;;;;;5037723;28;20541;-75
2022/07/07 06:58:51;;;;;;;133.57;120.60;;;16.60;98.50;;;;;;4997386;28;20838;-76
2022/07/07 07:01:19;;;;;;;131.40;118.90;;;16.70;98.40;;;;;;5022954;28;20058;-75
2022/07/07 07:03:46;;;;;;;129.60;116.88;;;16.70;98.40;;;;;;5011826;28;20507;-75
2022/07/07 07:06:14;;;;;;;134.88;122.30;;;16.70;98.30;;;;;;5016018;28;20483;-75
2022/07/07 07:08:42;;;;;;;130.18;117.78;;;16.70;98.40;;;;;;5013809;28;20518;-76
2022/07/07 07:11:09;;;;;;;128.88;116.55;;;16.70;98.40;;;;;;5017386;28;20047;-76
2022/07/07 07:13:35;;;;;;;129.02;116.63;;;16.70;98.30;;;;;;4998307;28;20046;-76
2022/07/07 07:16:03;;;;;;;131.27;118.57;;;16.70;98.20;;;;;;5033774;28;20073;-75
2022/07/07 07:18:29;;;;;;;130.63;118.22;;;16.70;98.20;;;;;;4999748;28;20046;-75
2022/07/07 07:20:56;;;;;;;130.35;117.90;;;16.70;98.30;;;;;;5001731;28;20051;-75
2022/07/07 07:23:24;;;;;;;129.65;117.35;;;16.70;98.40;;;;;;5018125;28;20046;-76
2022/07/07 07:25:53;;;;;;;130.88;118.07;;;16.70;98.40;;;;;;5033589;28;20046;-76
2022/07/07 07:28:20;;;;;;;134.32;121.60;;;16.70;98.50;;;;;;5014318;28;20054;-75
2022/07/07 07:30:47;;;;;;;136.40;123.70;;;16.70;98.60;;;;;;4972419;28;20533;-76
2022/07/07 07:33:14;;;;;;;134.02;121.40;;;16.70;98.60;;;;;;4991707;28;20517;-76
2022/07/07 07:35:41;;;;;;;133.10;120.45;;;16.70;98.70;;;;;;5018596;28;20049;-77
2022/07/07 07:38:08;;;;;;;132.20;119.90;;;16.70;98.80;;;;;;5018429;28;20488;-76
2022/07/07 07:40:35;;;;;;;135.05;122.45;;;16.80;98.90;;;;;;4999215;28;20479;-77
2022/07/07 07:43:03;;;;;;;133.77;121.43;;;16.80;98.70;;;;;;5024222;28;20053;-75
2022/07/07 07:45:30;;;;;;;132.98;120.65;;;16.80;98.80;;;;;;4997984;28;20507;-75
2022/07/07 07:47:57;;;;;;;134.25;121.53;;;16.80;98.70;;;;;;4998360;28;20185;-79
2022/07/07 07:50:24;;;;;;;133.32;120.63;;;16.80;98.70;;;;;;5017277;28;20069;-75
2022/07/07 07:52:51;;;;;;;131.45;118.85;;;16.90;98.70;;;;;;5031193;28;20136;-75
2022/07/07 07:55:21;;;;;;;127.70;115.47;;;16.90;98.70;;;;;;5035336;28;20134;-74
2022/07/07 07:57:48;;;;;;;134.65;122.63;;;16.90;98.60;;;;;;5016520;28;20046;-78
2022/07/07 08:00:19;;;;;;;133.00;121.03;;;16.90;98.40;;;;;;5040817;28;20109;-74
2022/07/07 08:02:47;;;;;;;131.57;119.43;;;16.90;98.50;;;;;;5026867;28;20566;-74
2022/07/07 08:05:15;;;;;;;129.57;117.30;;;16.90;98.60;;;;;;5030176;28;20061;-74
2022/07/07 08:07:43;;;;;;;131.10;118.88;;;16.90;98.60;;;;;;5041090;28;20136;-74
2022/07/07 08:10:11;;;;;;;132.35;120.10;;;16.90;98.50;;;;;;5015322;28;20494;-74
2022/07/07 08:12:38;;;;;;;128.98;116.78;;;16.90;98.60;;;;;;5042373;28;20060;-74
2022/07/07 08:15:07;;;;;;;128.68;116.75;;;16.90;98.50;;;;;;5017270;28;20050;-74
2022/07/07 08:17:35;;;;;;;132.20;119.90;;;16.90;98.60;;;;;;5015769;28;20062;-75
2022/07/07 08:20:03;;;;;;;127.60;115.50;;;16.90;98.50;;;;;;5022177;28;20054;-75
2022/07/07 08:22:30;;;;;;;131.40;119.10;;;16.90;98.50;;;;;;5027193;28;20077;-75
2022/07/07 08:24:57;;;;;;;128.80;116.50;;;16.80;98.60;;;;;;5010727;28;20149;-75
2022/07/07 08:27:24;;;;;;;126.68;114.68;;;16.80;98.70;;;;;;5014835;28;20061;-75
2022/07/07 08:29:51;;;;;;;126.82;114.85;;;16.90;99.00;;;;;;5002036;28;20056;-75
2022/07/07 08:32:18;;;;;;;129.82;117.40;;;17.00;98.90;;;;;;5039895;28;20043;-75
2022/07/07 08:34:47;;;;;;;128.45;116.15;;;17.00;98.80;;;;;;5004448;28;20047;-75
2022/07/07 08:37:14;;;;;;;131.35;119.15;;;17.00;98.80;;;;;;5000221;28;20057;-75
2022/07/07 08:39:41;;;;;;;128.20;116.30;;;17.00;98.70;;;;;;5014608;28;20086;-75
2022/07/07 08:42:08;;;;;;;129.70;117.32;;;17.00;98.40;;;;;;5023264;28;20046;-75
2022/07/07 08:44:36;;;;;;;129.93;117.82;;;17.00;98.40;;;;;;5030243;28;20073;-75
2022/07/07 08:47:03;;;;;;;133.98;121.57;;;16.90;98.40;;;;;;5021621;28;20062;-75
2022/07/07 08:49:31;;;;;;;128.80;116.63;;;17.00;98.50;;;;;;5022310;28;20057;-76
2022/07/07 08:52:00;;;;;;;130.50;118.35;;;16.90;98.60;;;;;;5037604;28;20060;-75
2022/07/07 08:54:27;;;;;;;131.75;119.75;;;17.00;98.70;;;;;;5030422;28;20150;-75
2022/07/07 08:56:55;;;;;;;134.50;122.10;;;17.00;98.60;;;;;;5022781;28;20076;-75
2022/07/07 08:59:23;;;;;;;135.73;123.55;;;17.00;98.80;;;;;;5019170;28;20054;-75
2022/07/07 09:01:57;;;;;;;133.25;120.80;;;17.10;99.00;;;;;;4999886;28;20050;-73
2022/07/07 09:04:24;;;;;;;;;;;17.10;99.20;;;;;;5005103;28;20055;-73
2022/07/07 09:06:54;;;;;;;132.18;119.80;;;17.20;98.70;;;;;;5017880;28;20290;-73
2022/07/07 09:09:37;;;;;;;130.77;118.47;;;17.30;98.60;;;;;;4995763;28;20066;-74
2022/07/07 09:12:06;;;;;;;129.55;117.28;;;17.30;98.40;;;;;;5002513;28;20583;-74
2022/07/07 09:14:37;;;;;;;132.27;120.03;;;17.30;98.20;;;;;;5000145;28;20501;-73
2022/07/07 09:17:13;;;;;;;135.32;122.75;;;17.30;98.20;;;;;;4998971;28;20042;-73
2022/07/07 09:19:40;;;;;;;134.65;122.30;;;17.30;98.20;;;;;;5017031;28;20129;-73
2022/07/07 09:22:07;;;;;;;136.70;124.20;;;17.30;98.10;;;;;;4997107;28;20507;-73
2022/07/07 09:24:53;;;;;;;134.88;122.50;;;17.30;98.20;;;;;;4999613;28;20058;-73
2022/07/07 09:27:20;;;;;;;132.82;120.43;;;17.30;98.30;;;;;;4985275;28;20064;-73
2022/07/07 09:29:47;;;;;;;132.80;120.15;;;17.30;98.40;;;;;;5006920;28;20049;-74
2022/07/07 09:32:13;;;;;;;137.43;125.03;;;17.40;98.40;;;;;;5012138;28;20152;-74
2022/07/07 09:34:40;;;;;;;131.75;119.43;;;17.40;98.20;;;;;;4995610;28;20057;-74
2022/07/07 09:39:55;;;;;;;133.00;120.63;;;17.40;98.30;;;;;;4996036;28;20531;-74
2022/07/07 09:42:24;;;;;;;135.18;122.57;;;17.50;98.20;;;;;;5013749;28;20054;-74
2022/07/07 09:44:53;;;;;;;135.05;122.72;;;17.50;98.20;;;;;;5004775;28;20046;-73
2022/07/07 09:47:20;;;;;;;134.35;121.97;;;17.50;98.30;;;;;;5015379;28;20050;-73
2022/07/07 09:50:00;;;;;;;132.07;119.57;;;17.50;98.10;;;;;;5035867;28;20045;-73
2022/07/07 09:52:27;;;;;;;131.23;118.65;;;17.50;98.10;;;;;;5020514;28;20051;-73
2022/07/07 09:54:57;;;;;;;132.07;119.68;;;17.50;98.20;;;;;;5015033;28;20042;-73
2022/07/07 09:57:24;;;;;;;131.23;118.78;;;17.60;98.40;;;;;;5036609;28;20046;-73
2022/07/07 09:59:52;;;;;;;132.98;120.57;;;17.60;98.40;;;;;;5002616;28;20051;-73
2022/07/07 10:02:22;;;;;;;135.38;122.80;;;17.60;98.60;;;;;;5017181;28;20149;-74
2022/07/07 10:04:51;;;;;;;135.45;123.03;;;17.60;98.50;;;;;;5025888;28;20057;-73
2022/07/07 10:07:20;;;;;;;136.30;123.63;;;17.70;98.50;;;;;;4998636;28;20050;-74
2022/07/07 10:09:51;;;;;;;136.00;123.35;;;17.70;98.40;;;;;;5015641;28;20504;-73
2022/07/07 10:12:22;;;;;;;134.82;122.53;;;17.70;98.30;;;;;;5023289;28;20061;-73
2022/07/07 10:14:50;;;;;;;133.80;121.22;;;17.70;98.10;;;;;;5014878;28;20054;-73
2022/07/07 10:17:18;;;;;;;134.85;122.65;;;17.70;98.20;;;;;;5048138;28;20480;-73
2022/07/07 10:19:45;;;;;;;134.10;121.95;;;17.70;98.00;;;;;;5015087;28;20134;-74
2022/07/07 10:22:14;;;;;;;136.18;123.57;;;17.70;97.90;;;;;;5014686;28;20052;-73
2022/07/07 10:24:42;;;;;;;136.07;123.68;;;17.70;98.10;;;;;;5044429;28;21680;-74
2022/07/07 10:27:17;;;;;;;134.95;122.80;;;17.70;97.90;;;;;;5013879;28;20089;-75
2022/07/07 10:29:48;;;;;;;135.45;123.25;;;17.80;98.00;;;;;;5041466;28;20049;-75
2022/07/07 10:32:17;;;;;;;137.43;125.20;;;17.70;97.90;;;;;;5030047;28;20058;-75
2022/07/07 10:34:51;;;;;;;138.95;126.45;;;17.80;98.10;;;;;;5029831;28;20053;-74
2022/07/07 10:37:18;;;;;;;136.17;123.67;;;17.80;98.00;;;;;;5038266;28;20464;-74
2022/07/07 10:39:47;;;;;;;132.43;120.28;;;17.80;98.10;;;;;;5014595;28;20137;-74
2022/07/07 10:42:39;;;;;;;133.30;120.80;;;17.80;98.30;;;;;;5004564;28;20630;-74
2022/07/07 10:45:10;;;;;;;133.90;121.40;;;17.80;98.10;;;;;;5035668;28;20133;-74
2022/07/07 10:47:38;;;;;;;131.05;119.15;;;17.90;97.80;;;;;;5032942;28;20522;-73
2022/07/07 10:50:23;;;;;;;133.20;120.97;;;17.90;97.90;;;;;;5009991;28;20530;-73
2022/07/07 10:52:50;;;;;;;133.88;121.38;;;17.90;98.00;;;;;;5034388;28;20097;-74
2022/07/07 10:55:17;;;;;;;132.10;119.90;;;17.90;98.00;;;;;;5012896;28;20716;-73
2022/07/07 10:57:46;;;;;;;139.70;126.85;;;17.90;97.90;;;;;;5011322;28;20056;-74
2022/07/07 11:00:19;;;;;;;133.40;121.18;;;17.90;97.70;;;;;;5036584;28;20084;-74
2022/07/07 11:02:50;;;;;;;132.50;120.30;;;17.90;97.70;;;;;;5038284;28;20058;-73
2022/07/07 11:05:32;;;;;;;131.07;118.78;;;17.80;97.50;;;;;;5032005;28;20478;-77
2022/07/07 11:08:11;;;;;;;133.52;120.82;;;17.70;97.20;;;;;;5014169;28;20054;-74
2022/07/07 11:10:50;;;;;;;132.23;119.85;;;17.60;96.80;;;;;;5032404;28;20064;-74
2022/07/07 11:13:21;;;;;;;132.02;119.57;;;17.60;96.90;;;;;;5032616;28;20057;-72
2022/07/07 11:15:50;;;;;;;134.73;121.70;;;17.60;96.90;;;;;;5003726;28;20050;-72
2022/07/07 11:18:19;;;;;;;136.13;123.35;;;17.50;96.80;;;;;;5005082;28;20058;-72
2022/07/07 11:20:57;;;;;;;137.40;124.25;;;17.40;96.80;;;;;;5020732;28;20054;-72
2022/07/07 11:23:27;;;;;;;137.73;124.82;;;17.40;97.10;;;;;;5026585;28;20428;-71
2022/07/07 11:25:57;;;;;;;135.85;122.95;;;17.40;97.00;;;;;;5028551;28;20338;-70
2022/07/07 11:28:26;;;;;;;134.65;122.05;;;17.40;97.20;;;;;;5027324;28;20050;-71
2022/07/07 11:31:07;;;;;;;135.95;123.03;;;17.40;97.10;;;;;;5012324;28;20058;-72
2022/07/07 11:33:34;;;;;;;133.57;121.22;;;17.40;97.00;;;;;;5025406;28;20094;-72
2022/07/07 11:36:14;;;;;;;132.65;120.18;;;17.50;97.00;;;;;;5012178;28;20050;-72
2022/07/07 11:38:41;;;;;;;131.38;118.47;;;17.50;96.70;;;;;;4994553;28;20141;-72
2022/07/07 11:41:09;;;;;;;133.50;119.90;;;17.60;96.70;;;;;;5000160;28;20056;-72
2022/07/07 11:43:36;;;;;;;137.20;123.63;;;17.50;96.20;;;;;;5024148;28;20506;-72
2022/07/07 11:46:04;;;;;;;135.25;122.35;;;17.60;96.10;;;;;;5016694;28;20120;-72
2022/07/07 11:48:41;;;;;;;137.82;124.60;;;17.50;96.00;;;;;;5029305;28;20045;-72
2022/07/07 11:51:09;;;;;;;133.95;121.10;;;17.50;95.80;;;;;;5033619;28;20049;-72
2022/07/07 11:53:36;;;;;;;137.57;124.22;;;17.50;95.40;;;;;;5015025;28;20217;-72
2022/07/07 11:56:04;;;;;;;137.77;124.18;;;17.50;95.30;;;;;;5015117;28;20050;-72
2022/07/07 11:58:31;;;;;;;137.75;124.07;;;17.50;95.40;;;;;;5037539;28;20046;-72
2022/07/07 12:00:58;;;;;;;138.05;124.88;;;17.40;95.60;;;;;;5014841;28;20128;-72
2022/07/07 12:03:35;;;;;;;137.18;123.93;;;17.50;95.80;;;;;;5032794;28;20050;-72
2022/07/07 12:06:04;;;;;;;137.20;124.05;;;17.50;95.70;;;;;;5017179;28;20056;-72
2022/07/07 12:08:36;;;;;;;136.57;123.38;;;17.50;95.70;;;;;;5025159;28;20054;-71
2022/07/07 12:11:03;;;;;;;136.68;123.68;;;17.50;95.30;;;;;;5035012;28;20197;-71
2022/07/07 12:13:30;;;;;;;140.95;128.05;;;17.50;95.30;;;;;;5041976;28;20550;-72
2022/07/07 12:15:58;;;;;;;141.40;128.55;;;17.50;95.10;;;;;;5041627;28;20050;-72